createdAt,value
2017-03-25T00:00:06.928Z,1026.1
2017-03-25T00:00:47.621Z,1026.13
2017-03-25T00:01:28.328Z,1026.14
2017-03-25T00:02:08.964Z,1026.14
2017-03-25T00:02:49.615Z,1026.16
2017-03-25T00:03:30.273Z,1026.19
2017-03-25T00:04:10.920Z,1026.18
2017-03-25T00:04:51.577Z,1026.2
2017-03-25T00:05:32.235Z,1026.19
2017-03-25T00:06:12.801Z,1026.17
2017-03-25T00:06:53.440Z,1026.16
2017-03-25T00:07:34.085Z,1026.22
2017-03-25T00:08:14.649Z,1026.15
2017-03-25T00:08:55.307Z,1026.14
2017-03-25T00:09:35.946Z,1026.16
2017-03-25T00:10:16.515Z,1026.13
2017-03-25T00:10:57.132Z,1026.12
2017-03-25T00:11:37.801Z,1026.12
2017-03-25T00:12:18.454Z,1026.13
2017-03-25T00:12:59.104Z,1026.13
2017-03-25T00:13:39.757Z,1026.14
2017-03-25T00:14:20.411Z,1026.15
2017-03-25T00:15:01.065Z,1026.1
2017-03-25T00:15:41.715Z,1026.14
2017-03-25T00:16:22.372Z,1026.12
2017-03-25T00:17:04.046Z,1026.15
2017-03-25T00:17:45.728Z,1026.16
2017-03-25T00:18:26.377Z,1026.18
2017-03-25T00:19:07.031Z,1026.17
2017-03-25T00:19:47.681Z,1026.2
2017-03-25T00:20:28.338Z,1026.2
2017-03-25T00:21:08.988Z,1026.2
2017-03-25T00:21:49.641Z,1026.25
2017-03-25T00:22:30.296Z,1026.2
2017-03-25T00:23:10.914Z,1026.23
2017-03-25T00:23:51.553Z,1026.18
2017-03-25T00:24:32.209Z,1026.26
2017-03-25T00:25:13.894Z,1026.2
2017-03-25T00:25:56.582Z,1026.25
2017-03-25T00:26:37.335Z,1026.23
2017-03-25T00:27:18.054Z,1026.23
2017-03-25T00:27:58.795Z,1026.21
2017-03-25T00:28:39.361Z,1026.17
2017-03-25T00:29:20.049Z,1026.26
2017-03-25T00:30:00.762Z,1026.24
2017-03-25T00:30:41.412Z,1026.21
2017-03-25T00:31:21.985Z,1026.23
2017-03-25T00:32:02.671Z,1026.21
2017-03-25T00:32:43.367Z,1026.24
2017-03-25T00:33:24.025Z,1026.21
2017-03-25T00:34:04.579Z,1026.21
2017-03-25T00:34:45.274Z,1026.2
2017-03-25T00:35:25.976Z,1026.26
2017-03-25T00:36:06.627Z,1026.22
2017-03-25T00:36:47.598Z,1026.2
2017-03-25T00:37:28.292Z,1026.21
2017-03-25T00:38:08.899Z,1026.21
2017-03-25T00:38:49.552Z,1026.23
2017-03-25T00:39:30.124Z,1026.19
2017-03-25T00:40:10.805Z,1026.21
2017-03-25T00:40:52.529Z,1026.21
2017-03-25T00:41:33.189Z,1026.19
2017-03-25T00:42:13.742Z,1026.19
2017-03-25T00:42:55.570Z,1026.18
2017-03-25T00:43:36.269Z,1026.16
2017-03-25T00:44:16.927Z,1026.15
2017-03-25T00:44:57.499Z,1026.11
2017-03-25T00:45:38.075Z,1026.17
2017-03-25T00:46:18.682Z,1026.15
2017-03-25T00:46:59.434Z,1026.12
2017-03-25T00:47:40.004Z,1026.09
2017-03-25T00:48:20.693Z,1026.1
2017-03-25T00:49:01.283Z,1026.1
2017-03-25T00:49:41.945Z,1026.12
2017-03-25T00:50:22.529Z,1026.07
2017-03-25T00:51:03.201Z,1026.06
2017-03-25T00:51:43.794Z,1026.05
2017-03-25T00:52:24.445Z,1026.06
2017-03-25T00:53:05.036Z,1026.09
2017-03-25T00:53:46.784Z,1026.09
2017-03-25T00:54:27.542Z,1026.05
2017-03-25T00:55:08.193Z,1026.09
2017-03-25T00:55:48.948Z,1026.13
2017-03-25T00:56:29.703Z,1026.1
2017-03-25T00:57:10.343Z,1026.15
2017-03-25T00:57:52.034Z,1026.1
2017-03-25T00:58:32.787Z,1026.15
2017-03-25T00:59:13.368Z,1026.1
2017-03-25T00:59:55.116Z,1026.12
2017-03-25T01:00:35.769Z,1026.08
2017-03-25T01:01:16.503Z,1026.14
2017-03-25T01:01:57.287Z,1026.13
2017-03-25T01:02:37.867Z,1026.07
2017-03-25T01:03:18.539Z,1026.08
2017-03-25T01:03:59.241Z,1026.1
2017-03-25T01:04:40.917Z,1026.05
2017-03-25T01:05:21.483Z,1026.06
2017-03-25T01:06:02.243Z,1026.09
2017-03-25T01:06:42.877Z,1026.1
2017-03-25T01:07:23.555Z,1026.09
2017-03-25T01:08:05.218Z,1026.09
2017-03-25T01:08:46.873Z,1026.09
2017-03-25T01:09:27.535Z,1026.05
2017-03-25T01:10:08.115Z,1026.04
2017-03-25T01:10:48.741Z,1026.01
2017-03-25T01:11:30.417Z,1026.05
2017-03-25T01:12:12.091Z,1026.01
2017-03-25T01:12:52.644Z,1026.02
2017-03-25T01:13:33.284Z,1026.02
2017-03-25T01:14:14.868Z,1026.02
2017-03-25T01:14:55.521Z,1026.04
2017-03-25T01:15:36.094Z,1026.05
2017-03-25T01:16:16.709Z,1026.02
2017-03-25T01:16:57.265Z,1025.99
2017-03-25T01:17:37.931Z,1026.04
2017-03-25T01:18:18.583Z,1026.04
2017-03-25T01:18:59.233Z,1025.99
2017-03-25T01:19:39.887Z,1025.95
2017-03-25T01:20:20.949Z,1026.03
2017-03-25T01:21:01.631Z,1025.99
2017-03-25T01:21:42.187Z,1026.01
2017-03-25T01:22:22.805Z,1026.02
2017-03-25T01:23:03.462Z,1025.95
2017-03-25T01:23:44.046Z,1025.99
2017-03-25T01:24:24.663Z,1025.99
2017-03-25T01:25:05.317Z,1025.95
2017-03-25T01:25:45.887Z,1025.98
2017-03-25T01:26:26.511Z,1025.96
2017-03-25T01:27:07.171Z,1025.94
2017-03-25T01:27:47.724Z,1025.96
2017-03-25T01:28:28.331Z,1025.91
2017-03-25T01:29:08.926Z,1025.93
2017-03-25T01:29:49.606Z,1025.9
2017-03-25T01:30:30.167Z,1025.89
2017-03-25T01:31:10.752Z,1025.85
2017-03-25T01:31:51.328Z,1025.88
2017-03-25T01:32:31.987Z,1025.85
2017-03-25T01:33:12.641Z,1025.87
2017-03-25T01:33:53.293Z,1025.82
2017-03-25T01:34:33.950Z,1025.83
2017-03-25T01:35:14.600Z,1025.85
2017-03-25T01:35:55.256Z,1025.86
2017-03-25T01:36:35.901Z,1025.81
2017-03-25T01:37:16.560Z,1025.81
2017-03-25T01:37:57.213Z,1025.8
2017-03-25T01:38:37.860Z,1025.8
2017-03-25T01:39:18.529Z,1025.75
2017-03-25T01:39:59.172Z,1025.81
2017-03-25T01:40:39.829Z,1025.78
2017-03-25T01:41:20.425Z,1025.79
2017-03-25T01:42:01.086Z,1025.75
2017-03-25T01:42:56.583Z,1025.73
2017-03-25T01:43:37.192Z,1025.75
2017-03-25T01:44:18.754Z,1025.75
2017-03-25T01:44:59.317Z,1025.74
2017-03-25T01:45:39.930Z,1025.76
2017-03-25T01:46:20.503Z,1025.78
2017-03-25T01:47:01.175Z,1025.76
2017-03-25T01:47:41.811Z,1025.75
2017-03-25T01:48:22.464Z,1025.75
2017-03-25T01:49:03.116Z,1025.72
2017-03-25T01:49:43.771Z,1025.73
2017-03-25T01:50:24.434Z,1025.75
2017-03-25T01:51:05.078Z,1025.7
2017-03-25T01:51:45.663Z,1025.73
2017-03-25T01:52:26.235Z,1025.75
2017-03-25T01:53:06.841Z,1025.73
2017-03-25T01:53:47.494Z,1025.74
2017-03-25T01:54:28.062Z,1025.69
2017-03-25T01:55:08.652Z,1025.69
2017-03-25T01:55:49.211Z,1025.68
2017-03-25T01:56:29.795Z,1025.68
2017-03-25T01:57:10.353Z,1025.62
2017-03-25T01:57:50.951Z,1025.65
2017-03-25T01:58:31.541Z,1025.65
2017-03-25T01:59:12.201Z,1025.64
2017-03-25T01:59:52.760Z,1025.66
2017-03-25T02:00:33.369Z,1025.67
2017-03-25T02:01:13.956Z,1025.68
2017-03-25T02:01:54.608Z,1025.62
2017-03-25T02:02:35.255Z,1025.65
2017-03-25T02:03:15.916Z,1025.63
2017-03-25T02:03:56.567Z,1025.6
2017-03-25T02:04:37.253Z,1025.62
2017-03-25T02:05:17.874Z,1025.61
2017-03-25T02:05:58.526Z,1025.6
2017-03-25T02:06:39.174Z,1025.64
2017-03-25T02:07:19.833Z,1025.61
2017-03-25T02:08:00.478Z,1025.61
2017-03-25T02:08:41.134Z,1025.63
2017-03-25T02:09:21.790Z,1025.62
2017-03-25T02:10:02.442Z,1025.61
2017-03-25T02:10:43.096Z,1025.65
2017-03-25T02:11:23.750Z,1025.6
2017-03-25T02:12:04.318Z,1025.61
2017-03-25T02:12:44.904Z,1025.6
2017-03-25T02:13:25.490Z,1025.59
2017-03-25T02:14:07.077Z,1025.59
2017-03-25T02:14:47.662Z,1025.6
2017-03-25T02:15:28.338Z,1025.6
2017-03-25T02:16:08.922Z,1025.57
2017-03-25T02:16:49.585Z,1025.63
2017-03-25T02:17:30.249Z,1025.61
2017-03-25T02:18:10.897Z,1025.6
2017-03-25T02:18:51.551Z,1025.59
2017-03-25T02:19:32.199Z,1025.6
2017-03-25T02:20:12.850Z,1025.56
2017-03-25T02:20:53.514Z,1025.58
2017-03-25T02:21:34.162Z,1025.54
2017-03-25T02:22:14.815Z,1025.58
2017-03-25T02:22:57.429Z,1025.58
2017-03-25T02:23:38.081Z,1025.56
2017-03-25T02:24:30.612Z,1025.58
2017-03-25T02:25:16.181Z,1025.58
2017-03-25T02:26:12.708Z,1025.59
2017-03-25T02:27:09.093Z,1025.59
2017-03-25T02:27:49.783Z,1025.59
2017-03-25T02:28:41.188Z,1025.59
2017-03-25T02:33:08.236Z,1025.53
2017-03-25T02:33:48.892Z,1025.49
2017-03-25T02:34:29.546Z,1025.49
2017-03-25T02:35:10.200Z,1025.46
2017-03-25T02:35:50.854Z,1025.48
2017-03-25T02:36:31.508Z,1025.47
2017-03-25T02:37:13.078Z,1025.41
2017-03-25T02:37:53.735Z,1025.44
2017-03-25T02:38:36.331Z,1025.41
2017-03-25T02:39:16.987Z,1025.41
2017-03-25T02:39:57.635Z,1025.4
2017-03-25T02:40:38.290Z,1025.42
2017-03-25T02:41:23.861Z,1025.39
2017-03-25T02:42:04.512Z,1025.39
2017-03-25T02:52:14.741Z,1025.39
2017-03-25T02:52:57.412Z,1025.38
2017-03-25T02:53:38.030Z,1025.38
2017-03-25T02:54:18.671Z,1025.39
2017-03-25T02:54:59.367Z,1025.39
2017-03-25T02:55:39.941Z,1025.4
2017-03-25T02:56:32.525Z,1025.44
2017-03-25T02:58:45.913Z,1025.42
2017-03-25T02:59:26.527Z,1025.46
2017-03-25T03:00:07.087Z,1025.4
2017-03-25T03:00:49.729Z,1025.43
2017-03-25T03:01:30.396Z,1025.42
2017-03-25T03:02:11.087Z,1025.38
2017-03-25T03:02:51.737Z,1025.41
2017-03-25T03:03:32.386Z,1025.39
2017-03-25T03:04:13.039Z,1025.39
2017-03-25T03:04:53.698Z,1025.37
2017-03-25T03:05:36.306Z,1025.4
2017-03-25T03:06:17.968Z,1025.36
2017-03-25T03:06:58.568Z,1025.36
2017-03-25T03:07:39.124Z,1025.34
2017-03-25T03:08:19.788Z,1025.35
2017-03-25T03:09:00.425Z,1025.34
2017-03-25T03:09:42.001Z,1025.31
2017-03-25T03:10:23.690Z,1025.36
2017-03-25T03:11:04.342Z,1025.36
2017-03-25T03:11:44.999Z,1025.38
2017-03-25T03:12:26.609Z,1025.34
2017-03-25T03:13:07.262Z,1025.34
2017-03-25T03:13:47.825Z,1025.3
2017-03-25T03:14:29.406Z,1025.33
2017-03-25T03:15:11.990Z,1025.28
2017-03-25T03:15:52.638Z,1025.32
2017-03-25T03:16:33.207Z,1025.32
2017-03-25T03:17:15.839Z,1025.31
2017-03-25T03:17:56.429Z,1025.3
2017-03-25T03:18:37.093Z,1025.32
2017-03-25T03:19:17.662Z,1025.26
2017-03-25T03:19:58.248Z,1025.29
2017-03-25T03:20:39.860Z,1025.31
2017-03-25T03:21:20.522Z,1025.27
2017-03-25T03:22:01.126Z,1025.25
2017-03-25T03:22:41.789Z,1025.31
2017-03-25T03:23:22.379Z,1025.31
2017-03-25T03:24:03.057Z,1025.3
2017-03-25T03:24:43.684Z,1025.32
2017-03-25T03:25:24.345Z,1025.3
2017-03-25T03:26:04.989Z,1025.31
2017-03-25T03:26:45.642Z,1025.35
2017-03-25T03:27:26.177Z,1025.37
2017-03-25T03:28:06.807Z,1025.38
2017-03-25T03:28:47.487Z,1025.34
2017-03-25T03:29:28.157Z,1025.37
2017-03-25T03:30:08.727Z,1025.35
2017-03-25T03:30:49.307Z,1025.35
2017-03-25T03:31:29.903Z,1025.36
2017-03-25T03:32:10.581Z,1025.34
2017-03-25T03:32:51.146Z,1025.39
2017-03-25T03:33:31.763Z,1025.33
2017-03-25T03:34:12.420Z,1025.28
2017-03-25T03:34:52.981Z,1025.36
2017-03-25T03:35:33.616Z,1025.33
2017-03-25T03:36:15.197Z,1025.37
2017-03-25T03:36:55.742Z,1025.34
2017-03-25T03:37:36.396Z,1025.34
2017-03-25T03:38:17.053Z,1025.34
2017-03-25T03:38:57.700Z,1025.36
2017-03-25T03:39:38.397Z,1025.34
2017-03-25T03:40:19.007Z,1025.36
2017-03-25T03:40:59.660Z,1025.37
2017-03-25T03:41:40.634Z,1025.35
2017-03-25T03:42:22.248Z,1025.34
2017-03-25T03:43:02.850Z,1025.35
2017-03-25T03:43:43.506Z,1025.34
2017-03-25T03:44:24.067Z,1025.35
2017-03-25T03:45:04.667Z,1025.37
2017-03-25T03:45:45.268Z,1025.33
2017-03-25T03:46:25.905Z,1025.37
2017-03-25T03:47:06.563Z,1025.36
2017-03-25T03:47:47.212Z,1025.36
2017-03-25T03:48:27.779Z,1025.35
2017-03-25T03:49:08.420Z,1025.36
2017-03-25T03:49:49.070Z,1025.34
2017-03-25T03:50:29.723Z,1025.34
2017-03-25T03:51:10.370Z,1025.33
2017-03-25T03:51:51.050Z,1025.35
2017-03-25T03:52:31.683Z,1025.37
2017-03-25T03:53:12.332Z,1025.33
2017-03-25T03:53:52.986Z,1025.3
2017-03-25T03:54:33.642Z,1025.33
2017-03-25T03:55:14.287Z,1025.3
2017-03-25T03:55:54.946Z,1025.32
2017-03-25T03:56:35.601Z,1025.35
2017-03-25T03:57:16.175Z,1025.32
2017-03-25T03:57:56.761Z,1025.32
2017-03-25T03:58:37.445Z,1025.29
2017-03-25T03:59:18.108Z,1025.34
2017-03-25T03:59:58.678Z,1025.27
2017-03-25T04:00:39.368Z,1025.28
2017-03-25T04:01:19.953Z,1025.3
2017-03-25T04:02:00.614Z,1025.29
2017-03-25T04:02:41.187Z,1025.28
2017-03-25T04:03:21.820Z,1025.28
2017-03-25T04:04:02.473Z,1025.27
2017-03-25T04:04:43.048Z,1025.25
2017-03-25T04:05:23.675Z,1025.24
2017-03-25T04:06:04.359Z,1025.2
2017-03-25T04:06:44.947Z,1025.26
2017-03-25T04:07:25.527Z,1025.28
2017-03-25T04:08:06.179Z,1025.22
2017-03-25T04:08:46.747Z,1025.22
2017-03-25T04:09:27.375Z,1025.24
2017-03-25T04:10:08.036Z,1025.23
2017-03-25T04:10:48.613Z,1025.23
2017-03-25T04:11:29.241Z,1025.23
2017-03-25T04:12:09.893Z,1025.25
2017-03-25T04:12:50.547Z,1025.26
2017-03-25T04:13:31.198Z,1025.26
2017-03-25T04:14:11.851Z,1025.23
2017-03-25T04:14:52.503Z,1025.23
2017-03-25T04:15:33.166Z,1025.22
2017-03-25T04:16:13.810Z,1025.23
2017-03-25T04:16:54.565Z,1025.23
2017-03-25T04:17:35.219Z,1025.24
2017-03-25T04:18:15.874Z,1025.22
2017-03-25T04:18:56.524Z,1025.22
2017-03-25T04:19:37.180Z,1025.21
2017-03-25T04:20:17.830Z,1025.22
2017-03-25T04:20:58.481Z,1025.2
2017-03-25T04:21:39.140Z,1025.22
2017-03-25T04:22:19.788Z,1025.22
2017-03-25T04:23:00.440Z,1025.2
2017-03-25T04:23:41.102Z,1025.23
2017-03-25T04:24:21.749Z,1025.21
2017-03-25T04:25:02.406Z,1025.16
2017-03-25T04:25:43.055Z,1025.19
2017-03-25T04:26:23.706Z,1025.19
2017-03-25T04:27:04.256Z,1025.19
2017-03-25T04:27:44.864Z,1025.22
2017-03-25T04:28:25.440Z,1025.24
2017-03-25T04:29:06.112Z,1025.23
2017-03-25T04:29:46.678Z,1025.17
2017-03-25T04:30:27.295Z,1025.12
2017-03-25T04:31:07.967Z,1025.19
2017-03-25T04:31:48.619Z,1025.2
2017-03-25T04:32:29.189Z,1025.17
2017-03-25T04:33:09.809Z,1025.19
2017-03-25T04:33:50.477Z,1025.21
2017-03-25T04:34:31.034Z,1025.23
2017-03-25T04:35:11.729Z,1025.26
2017-03-25T04:35:52.334Z,1025.23
2017-03-25T04:36:32.885Z,1025.22
2017-03-25T04:37:13.523Z,1025.2
2017-03-25T04:37:54.192Z,1025.21
2017-03-25T04:38:34.756Z,1025.21
2017-03-25T04:39:15.396Z,1025.22
2017-03-25T04:39:56.047Z,1025.19
2017-03-25T04:40:36.624Z,1025.19
2017-03-25T04:41:17.229Z,1025.22
2017-03-25T04:41:57.907Z,1025.21
2017-03-25T04:42:38.555Z,1025.22
2017-03-25T04:43:19.210Z,1025.2
2017-03-25T04:43:59.862Z,1025.23
2017-03-25T04:44:40.514Z,1025.23
2017-03-25T04:45:21.169Z,1025.18
2017-03-25T04:46:01.817Z,1025.19
2017-03-25T04:46:42.473Z,1025.22
2017-03-25T04:47:23.127Z,1025.22
2017-03-25T04:48:03.779Z,1025.19
2017-03-25T04:48:44.421Z,1025.22
2017-03-25T04:49:25.075Z,1025.16
2017-03-25T04:50:05.738Z,1025.14
2017-03-25T04:50:46.388Z,1025.15
2017-03-25T04:51:27.044Z,1025.15
2017-03-25T04:52:07.608Z,1025.11
2017-03-25T04:52:48.207Z,1025.14
2017-03-25T04:53:28.802Z,1025.17
2017-03-25T04:54:09.445Z,1025.15
2017-03-25T04:54:50.026Z,1025.15
2017-03-25T04:55:30.707Z,1025.16
2017-03-25T04:56:11.311Z,1025.15
2017-03-25T04:56:51.957Z,1025.16
2017-03-25T04:57:32.584Z,1025.14
2017-03-25T04:58:13.258Z,1025.16
2017-03-25T04:58:53.913Z,1025.15
2017-03-25T04:59:34.483Z,1025.18
2017-03-25T05:00:15.124Z,1025.17
2017-03-25T05:00:55.768Z,1025.17
2017-03-25T05:01:36.406Z,1025.15
2017-03-25T05:02:17.016Z,1025.16
2017-03-25T05:02:57.628Z,1025.16
2017-03-25T05:03:38.184Z,1025.17
2017-03-25T05:04:18.777Z,1025.14
2017-03-25T05:04:59.386Z,1025.15
2017-03-25T05:05:40.036Z,1025.15
2017-03-25T05:06:20.596Z,1025.14
2017-03-25T05:07:01.197Z,1025.16
2017-03-25T05:07:41.793Z,1025.13
2017-03-25T05:08:22.443Z,1025.14
2017-03-25T05:09:03.051Z,1025.14
2017-03-25T05:09:43.716Z,1025.15
2017-03-25T05:10:24.285Z,1025.15
2017-03-25T05:11:04.951Z,1025.16
2017-03-25T05:11:45.516Z,1025.12
2017-03-25T05:12:26.111Z,1025.12
2017-03-25T05:13:06.699Z,1025.16
2017-03-25T05:13:47.361Z,1025.18
2017-03-25T05:14:27.924Z,1025.16
2017-03-25T05:15:08.506Z,1025.19
2017-03-25T05:15:49.097Z,1025.15
2017-03-25T05:16:29.767Z,1025.15
2017-03-25T05:17:10.329Z,1025.17
2017-03-25T05:17:50.912Z,1025.17
2017-03-25T05:18:31.514Z,1025.16
2017-03-25T05:19:12.174Z,1025.2
2017-03-25T05:19:52.757Z,1025.2
2017-03-25T05:20:33.435Z,1025.23
2017-03-25T05:21:14.020Z,1025.21
2017-03-25T05:21:54.677Z,1025.2
2017-03-25T05:22:35.258Z,1025.21
2017-03-25T05:23:15.944Z,1025.23
2017-03-25T05:23:56.541Z,1025.23
2017-03-25T05:24:37.188Z,1025.25
2017-03-25T05:25:17.756Z,1025.27
2017-03-25T05:25:58.352Z,1025.24
2017-03-25T05:26:38.928Z,1025.26
2017-03-25T05:27:19.595Z,1025.25
2017-03-25T05:28:00.153Z,1025.29
2017-03-25T05:28:40.726Z,1025.27
2017-03-25T05:29:21.355Z,1025.27
2017-03-25T05:30:01.920Z,1025.28
2017-03-25T05:30:42.487Z,1025.28
2017-03-25T05:31:23.104Z,1025.31
2017-03-25T05:32:03.678Z,1025.33
2017-03-25T05:32:44.307Z,1025.29
2017-03-25T05:33:24.959Z,1025.32
2017-03-25T05:34:05.605Z,1025.32
2017-03-25T05:34:46.261Z,1025.31
2017-03-25T05:35:26.918Z,1025.35
2017-03-25T05:36:07.569Z,1025.36
2017-03-25T05:36:48.219Z,1025.35
2017-03-25T05:37:28.894Z,1025.38
2017-03-25T05:38:09.525Z,1025.36
2017-03-25T05:38:50.184Z,1025.37
2017-03-25T05:39:30.838Z,1025.37
2017-03-25T05:40:11.480Z,1025.34
2017-03-25T05:40:52.138Z,1025.35
2017-03-25T05:41:32.795Z,1025.36
2017-03-25T05:42:13.381Z,1025.38
2017-03-25T05:42:54.005Z,1025.39
2017-03-25T05:43:34.641Z,1025.37
2017-03-25T05:44:15.210Z,1025.37
2017-03-25T05:44:55.852Z,1025.35
2017-03-25T05:45:36.505Z,1025.37
2017-03-25T05:46:17.101Z,1025.38
2017-03-25T05:46:57.747Z,1025.39
2017-03-25T05:47:38.276Z,1025.37
2017-03-25T05:48:19.321Z,1025.34
2017-03-25T05:48:59.972Z,1025.36
2017-03-25T05:49:40.624Z,1025.39
2017-03-25T05:50:21.280Z,1025.36
2017-03-25T05:51:02.969Z,1025.35
2017-03-25T05:51:43.605Z,1025.34
2017-03-25T05:52:24.260Z,1025.34
2017-03-25T05:53:04.914Z,1025.3
2017-03-25T05:53:45.559Z,1025.32
2017-03-25T05:54:26.217Z,1025.3
2017-03-25T05:55:06.880Z,1025.29
2017-03-25T05:55:47.540Z,1025.32
2017-03-25T05:56:28.178Z,1025.33
2017-03-25T05:57:08.831Z,1025.34
2017-03-25T05:57:49.484Z,1025.33
2017-03-25T05:58:30.137Z,1025.33
2017-03-25T05:59:10.790Z,1025.36
2017-03-25T05:59:51.447Z,1025.37
2017-03-25T06:00:32.100Z,1025.38
2017-03-25T06:01:12.745Z,1025.36
2017-03-25T06:01:53.398Z,1025.38
2017-03-25T06:02:33.987Z,1025.39
2017-03-25T06:03:14.665Z,1025.32
2017-03-25T06:03:55.263Z,1025.36
2017-03-25T06:04:35.903Z,1025.37
2017-03-25T06:05:16.494Z,1025.37
2017-03-25T06:05:57.170Z,1025.36
2017-03-25T06:06:37.769Z,1025.36
2017-03-25T06:07:18.415Z,1025.34
2017-03-25T06:07:59.067Z,1025.37
2017-03-25T06:08:39.719Z,1025.37
2017-03-25T06:09:20.374Z,1025.36
2017-03-25T06:10:01.027Z,1025.33
2017-03-25T06:10:41.679Z,1025.31
2017-03-25T06:11:22.332Z,1025.27
2017-03-25T06:12:02.978Z,1025.31
2017-03-25T06:12:43.637Z,1025.31
2017-03-25T06:13:24.291Z,1025.3
2017-03-25T06:14:04.937Z,1025.3
2017-03-25T06:14:45.599Z,1025.31
2017-03-25T06:15:26.255Z,1025.33
2017-03-25T06:16:06.903Z,1025.37
2017-03-25T06:16:47.657Z,1025.33
2017-03-25T06:17:28.218Z,1025.35
2017-03-25T06:18:08.854Z,1025.34
2017-03-25T06:18:49.517Z,1025.35
2017-03-25T06:19:30.127Z,1025.33
2017-03-25T06:20:10.821Z,1025.35
2017-03-25T06:20:51.474Z,1025.33
2017-03-25T06:21:32.035Z,1025.34
2017-03-25T06:22:12.677Z,1025.38
2017-03-25T06:22:53.322Z,1025.37
2017-03-25T06:23:33.982Z,1025.36
2017-03-25T06:24:14.624Z,1025.32
2017-03-25T06:24:55.289Z,1025.34
2017-03-25T06:25:35.944Z,1025.37
2017-03-25T06:26:16.585Z,1025.39
2017-03-25T06:26:57.241Z,1025.38
2017-03-25T06:27:37.895Z,1025.38
2017-03-25T06:28:18.540Z,1025.36
2017-03-25T06:28:59.214Z,1025.39
2017-03-25T06:29:39.858Z,1025.4
2017-03-25T06:30:20.505Z,1025.37
2017-03-25T06:31:01.167Z,1025.38
2017-03-25T06:31:41.818Z,1025.37
2017-03-25T06:32:22.479Z,1025.41
2017-03-25T06:33:03.126Z,1025.41
2017-03-25T06:33:43.777Z,1025.41
2017-03-25T06:34:24.428Z,1025.39
2017-03-25T06:35:05.081Z,1025.38
2017-03-25T06:35:45.732Z,1025.43
2017-03-25T06:36:26.389Z,1025.4
2017-03-25T06:37:07.062Z,1025.39
2017-03-25T06:37:47.695Z,1025.42
2017-03-25T06:38:28.266Z,1025.42
2017-03-25T06:39:08.859Z,1025.44
2017-03-25T06:39:49.539Z,1025.42
2017-03-25T06:40:30.207Z,1025.42
2017-03-25T06:41:10.758Z,1025.45
2017-03-25T06:41:51.511Z,1025.44
2017-03-25T06:42:32.150Z,1025.43
2017-03-25T06:43:12.817Z,1025.4
2017-03-25T06:43:53.375Z,1025.44
2017-03-25T06:44:33.963Z,1025.45
2017-03-25T06:45:14.570Z,1025.43
2017-03-25T06:45:55.221Z,1025.43
2017-03-25T06:46:35.777Z,1025.47
2017-03-25T06:47:16.370Z,1025.53
2017-03-25T06:47:56.944Z,1025.49
2017-03-25T06:48:37.517Z,1025.51
2017-03-25T06:49:18.107Z,1025.49
2017-03-25T06:49:58.688Z,1025.5
2017-03-25T06:50:39.271Z,1025.48
2017-03-25T06:51:19.928Z,1025.48
2017-03-25T06:52:00.486Z,1025.47
2017-03-25T06:52:41.140Z,1025.51
2017-03-25T06:53:21.782Z,1025.55
2017-03-25T06:54:02.367Z,1025.53
2017-03-25T06:54:42.998Z,1025.54
2017-03-25T06:55:23.640Z,1025.52
2017-03-25T06:56:04.211Z,1025.53
2017-03-25T06:56:44.852Z,1025.52
2017-03-25T06:57:25.498Z,1025.54
2017-03-25T06:58:06.058Z,1025.61
2017-03-25T06:58:46.656Z,1025.56
2017-03-25T06:59:27.318Z,1025.56
2017-03-25T07:00:08.007Z,1025.57
2017-03-25T07:00:48.584Z,1025.55
2017-03-25T07:01:29.170Z,1025.57
2017-03-25T07:02:09.783Z,1025.56
2017-03-25T07:02:50.416Z,1025.56
2017-03-25T07:03:30.974Z,1025.53
2017-03-25T07:04:11.579Z,1025.56
2017-03-25T07:04:52.165Z,1025.58
2017-03-25T07:05:32.812Z,1025.58
2017-03-25T07:06:13.390Z,1025.57
2017-03-25T07:06:53.969Z,1025.58
2017-03-25T07:07:34.582Z,1025.57
2017-03-25T07:08:15.217Z,1025.6
2017-03-25T07:08:56.895Z,1025.58
2017-03-25T07:09:37.658Z,1025.59
2017-03-25T07:10:18.301Z,1025.59
2017-03-25T07:10:58.966Z,1025.61
2017-03-25T07:11:39.598Z,1025.61
2017-03-25T07:12:20.261Z,1025.62
2017-03-25T07:13:00.922Z,1025.64
2017-03-25T07:13:41.558Z,1025.61
2017-03-25T07:14:22.218Z,1025.62
2017-03-25T07:15:02.869Z,1025.65
2017-03-25T07:15:43.533Z,1025.67
2017-03-25T07:16:24.199Z,1025.67
2017-03-25T07:17:04.841Z,1025.67
2017-03-25T07:17:45.491Z,1025.68
2017-03-25T07:18:26.130Z,1025.7
2017-03-25T07:19:06.804Z,1025.68
2017-03-25T07:19:47.449Z,1025.75
2017-03-25T07:20:28.104Z,1025.74
2017-03-25T07:21:08.756Z,1025.78
2017-03-25T07:21:49.398Z,1025.75
2017-03-25T07:22:30.058Z,1025.76
2017-03-25T07:23:10.837Z,1025.76
2017-03-25T07:23:51.466Z,1025.74
2017-03-25T07:24:32.203Z,1025.79
2017-03-25T07:25:12.867Z,1025.74
2017-03-25T07:25:53.528Z,1025.72
2017-03-25T07:26:34.179Z,1025.74
2017-03-25T07:27:14.838Z,1025.72
2017-03-25T07:27:55.484Z,1025.74
2017-03-25T07:28:36.058Z,1025.78
2017-03-25T07:29:16.694Z,1025.75
2017-03-25T07:29:57.344Z,1025.73
2017-03-25T07:30:37.921Z,1025.75
2017-03-25T07:31:18.545Z,1025.74
2017-03-25T07:31:59.200Z,1025.74
2017-03-25T07:32:39.765Z,1025.69
2017-03-25T07:33:21.396Z,1025.71
2017-03-25T07:34:02.050Z,1025.69
2017-03-25T07:34:42.701Z,1025.69
2017-03-25T07:35:23.354Z,1025.67
2017-03-25T07:36:04.008Z,1025.67
2017-03-25T07:36:44.659Z,1025.71
2017-03-25T07:37:25.217Z,1025.67
2017-03-25T07:38:05.808Z,1025.66
2017-03-25T07:38:48.463Z,1025.66
2017-03-25T07:39:29.215Z,1025.66
2017-03-25T07:40:09.793Z,1025.6
2017-03-25T07:40:50.358Z,1025.63
2017-03-25T07:41:30.973Z,1025.66
2017-03-25T07:42:11.624Z,1025.61
2017-03-25T07:42:52.188Z,1025.62
2017-03-25T07:43:32.785Z,1025.65
2017-03-25T07:44:13.376Z,1025.66
2017-03-25T07:44:54.038Z,1025.65
2017-03-25T07:45:34.595Z,1025.63
2017-03-25T07:46:16.243Z,1025.65
2017-03-25T07:46:56.909Z,1025.64
2017-03-25T07:47:37.565Z,1025.62
2017-03-25T07:48:18.145Z,1025.65
2017-03-25T07:48:58.727Z,1025.62
2017-03-25T07:49:39.429Z,1025.64
2017-03-25T07:50:20.070Z,1025.63
2017-03-25T07:51:00.652Z,1025.64
2017-03-25T07:51:41.242Z,1025.61
2017-03-25T07:52:21.937Z,1025.63
2017-03-25T07:53:02.584Z,1025.62
2017-03-25T07:53:43.155Z,1025.6
2017-03-25T07:54:23.722Z,1025.62
2017-03-25T07:55:04.339Z,1025.59
2017-03-25T07:55:44.890Z,1025.58
2017-03-25T07:56:25.546Z,1025.59
2017-03-25T07:57:06.190Z,1025.6
2017-03-25T07:57:46.848Z,1025.57
2017-03-25T07:58:27.502Z,1025.59
2017-03-25T07:59:08.150Z,1025.56
2017-03-25T07:59:48.806Z,1025.57
2017-03-25T08:00:29.459Z,1025.55
2017-03-25T08:01:10.112Z,1025.55
2017-03-25T08:01:50.765Z,1025.55
2017-03-25T08:02:31.420Z,1025.57
2017-03-25T08:03:12.071Z,1025.55
2017-03-25T08:03:52.721Z,1025.51
2017-03-25T08:04:33.383Z,1025.53
2017-03-25T08:05:14.026Z,1025.52
2017-03-25T08:05:54.682Z,1025.58
2017-03-25T08:06:35.336Z,1025.54
2017-03-25T08:07:15.989Z,1025.57
2017-03-25T08:07:56.671Z,1025.55
2017-03-25T08:08:37.295Z,1025.54
2017-03-25T08:09:17.947Z,1025.53
2017-03-25T08:09:58.608Z,1025.57
2017-03-25T08:10:39.256Z,1025.56
2017-03-25T08:11:19.913Z,1025.57
2017-03-25T08:12:00.561Z,1025.54
2017-03-25T08:12:41.136Z,1025.54
2017-03-25T08:13:21.714Z,1025.55
2017-03-25T08:14:02.322Z,1025.55
2017-03-25T08:14:42.968Z,1025.56
2017-03-25T08:15:23.524Z,1025.56
2017-03-25T08:16:04.140Z,1025.57
2017-03-25T08:16:45.735Z,1025.55
2017-03-25T08:17:26.402Z,1025.57
2017-03-25T08:18:06.975Z,1025.58
2017-03-25T08:18:47.536Z,1025.54
2017-03-25T08:19:28.139Z,1025.57
2017-03-25T08:20:08.811Z,1025.54
2017-03-25T08:20:49.362Z,1025.54
2017-03-25T08:21:30.067Z,1025.54
2017-03-25T08:22:10.758Z,1025.59
2017-03-25T08:22:51.414Z,1025.57
2017-03-25T08:23:32.071Z,1025.54
2017-03-25T08:24:12.727Z,1025.57
2017-03-25T08:24:53.381Z,1025.53
2017-03-25T08:25:34.032Z,1025.59
2017-03-25T08:26:14.684Z,1025.54
2017-03-25T08:26:55.341Z,1025.54
2017-03-25T08:27:35.887Z,1025.56
2017-03-25T08:28:16.491Z,1025.53
2017-03-25T08:28:58.110Z,1025.54
2017-03-25T08:29:38.870Z,1025.53